Palermo, Maine
Current Conditions -  °F | °C
As of 5:15 PM on Monday 20 Oct 2014 (Local Time) from KWVL Reporting Station
Clear Clear  
Wind Chill: 52°   Ceiling: Unl
Heat Index: 52°   Visibility: 10mi
Dew Point: 25°   Wind: 0mph
Humidity: 35%   Direction: NA
Pressure: 29.88"   Gusts: NA
Location:  44.41°N, 69.47°W
Report Text: KWVL 202115Z 00000KT 10SM CLR 11/M04 A2988 RMK AO1
Loading
Personal Weather Stations






























Interactive Weather Map
Tropical Storm Tracking
New forecast layout! Learn more

10-Day Weather Forecast

Advertisements
Track Severe Weather on mobile